createdAt,value
2017-08-06T00:00:15.349Z,59.30
2017-08-06T00:02:42.275Z,59.40
2017-08-06T00:05:09.131Z,59.50
2017-08-06T00:07:36.073Z,59.40
2017-08-06T00:10:02.963Z,59.60
2017-08-06T00:12:30.579Z,59.20
2017-08-06T00:14:57.498Z,59.60
2017-08-06T00:17:24.361Z,59.70
2017-08-06T00:19:51.311Z,60.00
2017-08-06T00:22:18.143Z,60.30
2017-08-06T00:24:45.066Z,60.40
2017-08-06T00:27:12.730Z,60.90
2017-08-06T00:29:40.332Z,61.00
2017-08-06T00:32:07.261Z,61.00
2017-08-06T00:34:34.083Z,60.80
2017-08-06T00:37:00.953Z,60.80
2017-08-06T00:39:27.882Z,61.50
2017-08-06T00:41:54.740Z,61.80
2017-08-06T00:44:21.605Z,62.60
2017-08-06T00:46:48.525Z,62.20
2017-08-06T00:49:15.460Z,62.70
2017-08-06T00:51:42.359Z,62.90
2017-08-06T00:54:09.284Z,63.10
2017-08-06T00:56:36.139Z,63.30
2017-08-06T00:59:03.066Z,63.20
2017-08-06T01:01:29.936Z,63.40
2017-08-06T01:03:56.792Z,63.20
2017-08-06T01:06:23.717Z,63.20
2017-08-06T01:08:50.551Z,63.50
2017-08-06T01:11:17.396Z,63.50
2017-08-06T01:13:44.320Z,64.20
2017-08-06T01:16:11.235Z,63.70
2017-08-06T01:18:38.080Z,63.70
2017-08-06T01:21:05.750Z,63.60
2017-08-06T01:23:33.348Z,63.60
2017-08-06T01:26:00.183Z,63.60
2017-08-06T01:28:27.086Z,63.80
2017-08-06T01:30:54.782Z,63.50
2017-08-06T01:33:21.630Z,63.40
2017-08-06T01:35:48.491Z,63.60
2017-08-06T01:38:15.400Z,64.00
2017-08-06T01:40:42.327Z,64.40
2017-08-06T01:43:09.211Z,64.70
2017-08-06T01:45:36.078Z,65.00
2017-08-06T01:48:03.067Z,65.00
2017-08-06T01:50:30.075Z,65.30
2017-08-06T01:52:56.952Z,65.40
2017-08-06T01:55:23.900Z,64.80
2017-08-06T01:57:50.772Z,65.00
2017-08-06T02:00:17.741Z,65.30
2017-08-06T02:02:44.670Z,65.60
2017-08-06T02:05:11.524Z,65.60
2017-08-06T02:07:38.453Z,65.50
2017-08-06T02:10:05.419Z,65.40
2017-08-06T02:12:32.275Z,64.80
2017-08-06T02:14:59.206Z,64.90
2017-08-06T02:17:26.119Z,64.80
2017-08-06T02:19:53.705Z,64.60
2017-08-06T02:39:42.174Z,65.60
2017-08-06T02:42:09.109Z,65.60
2017-08-06T02:44:36.091Z,65.70
2017-08-06T02:47:02.942Z,65.60
2017-08-06T02:49:29.863Z,66.10
2017-08-06T02:51:56.696Z,67.00
2017-08-06T02:54:23.542Z,66.30
2017-08-06T02:56:50.463Z,66.20
2017-08-06T02:59:18.067Z,66.50
2017-08-06T03:01:44.994Z,66.10
2017-08-06T03:04:11.855Z,65.90
2017-08-06T03:06:38.703Z,65.80
2017-08-06T03:09:05.635Z,65.60
2017-08-06T03:11:32.567Z,65.20
2017-08-06T03:13:59.423Z,64.90
2017-08-06T03:16:26.300Z,65.20
2017-08-06T03:18:53.206Z,65.20
2017-08-06T03:21:20.780Z,64.70
2017-08-06T03:23:47.720Z,64.70
2017-08-06T03:26:14.639Z,65.30
2017-08-06T03:28:42.223Z,64.80
2017-08-06T03:31:09.132Z,64.70
2017-08-06T03:33:36.039Z,65.40
2017-08-06T03:36:02.949Z,66.10
2017-08-06T03:38:30.546Z,65.90
2017-08-06T03:40:57.467Z,65.80
2017-08-06T03:43:24.302Z,66.00
2017-08-06T03:45:51.151Z,65.90
2017-08-06T03:48:18.116Z,65.50
2017-08-06T03:50:45.068Z,65.70
2017-08-06T03:53:11.972Z,65.80
2017-08-06T03:55:39.563Z,66.70
2017-08-06T03:58:06.471Z,66.60
2017-08-06T04:00:33.334Z,66.80
2017-08-06T04:03:01.003Z,66.20
2017-08-06T04:05:27.975Z,66.20
2017-08-06T04:07:54.883Z,65.40
2017-08-06T04:10:21.743Z,65.40
2017-08-06T04:12:48.675Z,66.00
2017-08-06T04:15:16.332Z,65.90
2017-08-06T04:17:43.996Z,65.10
2017-08-06T04:20:11.586Z,64.90
2017-08-06T04:22:38.512Z,64.90
2017-08-06T04:25:06.113Z,65.20
2017-08-06T04:27:45.235Z,65.10
2017-08-06T04:30:12.137Z,65.20
2017-08-06T04:32:39.075Z,64.90
2017-08-06T04:35:05.923Z,65.00
2017-08-06T04:37:32.767Z,65.30
2017-08-06T04:39:59.676Z,65.10
2017-08-06T04:42:26.600Z,65.80
2017-08-06T04:44:53.438Z,66.30
2017-08-06T04:47:20.282Z,66.50
2017-08-06T04:49:47.222Z,66.50
2017-08-06T04:52:14.192Z,66.70
2017-08-06T04:54:41.038Z,66.60
2017-08-06T04:57:07.949Z,66.80
2017-08-06T04:59:34.867Z,66.20
2017-08-06T05:02:01.725Z,66.10
2017-08-06T05:04:29.383Z,64.70
2017-08-06T05:06:56.228Z,64.50
2017-08-06T05:09:23.137Z,60.90
2017-08-06T05:11:49.993Z,56.90
2017-08-06T05:14:16.913Z,54.40
2017-08-06T05:16:43.830Z,51.60
2017-08-06T05:19:10.687Z,51.90
2017-08-06T05:21:37.639Z,53.10
2017-08-06T05:24:04.589Z,52.80
2017-08-06T05:26:31.431Z,48.40
2017-08-06T05:28:58.298Z,47.30
2017-08-06T05:31:25.245Z,48.20
2017-08-06T05:33:52.165Z,47.10
2017-08-06T05:36:19.099Z,47.40
2017-08-06T05:38:45.966Z,48.10
2017-08-06T05:41:12.883Z,48.80
2017-08-06T05:43:39.801Z,49.80
2017-08-06T05:46:06.691Z,51.30
2017-08-06T05:48:33.616Z,53.40
2017-08-06T05:51:01.270Z,55.50
2017-08-06T05:53:28.854Z,56.00
2017-08-06T05:55:55.771Z,56.10
2017-08-06T05:58:22.703Z,56.70
2017-08-06T06:00:49.604Z,57.80
2017-08-06T06:03:16.459Z,57.40
2017-08-06T06:05:43.371Z,58.40
2017-08-06T06:08:10.968Z,58.50
2017-08-06T06:10:37.882Z,58.40
2017-08-06T06:13:04.743Z,58.30
2017-08-06T06:15:31.667Z,57.80
2017-08-06T06:17:58.507Z,58.20
2017-08-06T06:20:26.170Z,57.70
2017-08-06T06:22:53.764Z,57.40
2017-08-06T06:25:20.625Z,57.40
2017-08-06T06:27:47.536Z,56.60
2017-08-06T06:30:14.379Z,55.80
2017-08-06T06:32:41.303Z,54.60
2017-08-06T06:35:08.889Z,54.30
2017-08-06T06:37:35.816Z,54.30
2017-08-06T06:40:03.409Z,54.90
2017-08-06T06:42:30.264Z,54.90
2017-08-06T06:44:57.175Z,55.60
2017-08-06T06:47:24.023Z,54.10
2017-08-06T06:49:50.921Z,51.90
2017-08-06T06:52:17.939Z,52.40
2017-08-06T06:54:44.844Z,50.70
2017-08-06T06:57:11.703Z,49.60
2017-08-06T06:59:38.639Z,49.70
2017-08-06T07:02:06.306Z,52.30
2017-08-06T07:04:33.909Z,53.10
2017-08-06T07:07:00.838Z,53.10
2017-08-06T07:09:27.705Z,54.70
2017-08-06T07:11:54.639Z,55.20
2017-08-06T07:14:21.553Z,55.90
2017-08-06T07:16:48.425Z,55.50
2017-08-06T07:19:15.400Z,54.10
2017-08-06T07:21:42.278Z,53.80
2017-08-06T07:24:09.979Z,54.10
2017-08-06T07:26:36.822Z,54.10
2017-08-06T07:29:03.679Z,55.00
2017-08-06T07:31:30.590Z,54.30
2017-08-06T07:33:57.532Z,54.90
2017-08-06T07:36:24.495Z,53.40
2017-08-06T07:38:51.376Z,53.10
2017-08-06T07:41:18.234Z,51.60
2017-08-06T07:43:45.199Z,51.50
2017-08-06T07:46:12.830Z,52.30
2017-08-06T07:48:39.755Z,51.70
2017-08-06T07:51:06.698Z,50.50
2017-08-06T07:53:33.699Z,49.80
2017-08-06T07:56:01.331Z,49.50
2017-08-06T07:58:28.196Z,49.50
2017-08-06T08:00:55.168Z,48.90
2017-08-06T08:03:22.044Z,49.50
2017-08-06T08:05:48.922Z,49.10
2017-08-06T08:08:15.886Z,49.80
2017-08-06T08:10:42.727Z,48.70
2017-08-06T08:13:10.320Z,47.50
2017-08-06T08:15:37.256Z,47.00
2017-08-06T08:18:04.248Z,46.10
2017-08-06T08:20:31.123Z,45.10
2017-08-06T08:22:57.999Z,43.90
2017-08-06T08:25:24.945Z,43.40
2017-08-06T08:27:51.813Z,40.80
2017-08-06T08:30:18.688Z,39.30
2017-08-06T08:32:45.634Z,37.90
2017-08-06T08:35:13.320Z,37.40
2017-08-06T08:37:45.655Z,37.30
2017-08-06T08:40:29.053Z,35.90
2017-08-06T08:42:58.248Z,35.00
2017-08-06T08:45:26.921Z,34.50
2017-08-06T08:47:55.531Z,35.50
2017-08-06T08:50:22.485Z,32.00
2017-08-06T08:52:49.512Z,34.60
2017-08-06T08:55:16.447Z,35.40
2017-08-06T08:57:48.946Z,34.80
2017-08-06T09:00:22.196Z,35.40
2017-08-06T09:02:57.252Z,33.40
2017-08-06T09:08:07.496Z,34.50
2017-08-06T09:10:34.508Z,38.00
2017-08-06T09:13:01.418Z,38.70
2017-08-06T09:15:33.892Z,39.70
2017-08-06T09:18:07.633Z,38.30
2017-08-06T09:20:38.243Z,36.50
2017-08-06T09:23:08.898Z,35.80
2017-08-06T09:25:37.979Z,33.90
2017-08-06T09:28:05.665Z,36.40
2017-08-06T09:30:36.579Z,36.40
2017-08-06T09:33:04.529Z,33.50
2017-08-06T09:35:31.487Z,33.50
2017-08-06T09:37:58.387Z,33.30
2017-08-06T09:40:25.244Z,28.50
2017-08-06T09:42:52.228Z,27.60
2017-08-06T09:45:19.103Z,28.30
2017-08-06T09:47:45.971Z,27.80
2017-08-06T09:50:12.978Z,27.50
2017-08-06T09:52:42.461Z,27.30
2017-08-06T09:55:21.485Z,24.10
2017-08-06T09:57:49.998Z,24.00
2017-08-06T10:00:16.861Z,25.10
2017-08-06T10:02:43.730Z,25.60
2017-08-06T10:05:10.682Z,25.70
2017-08-06T10:07:37.591Z,26.40
2017-08-06T10:10:04.647Z,25.20
2017-08-06T10:12:31.535Z,26.40
2017-08-06T10:14:58.418Z,27.10
2017-08-06T10:17:25.359Z,26.60
2017-08-06T10:19:52.249Z,26.30
2017-08-06T10:22:19.195Z,24.60
2017-08-06T10:24:46.040Z,25.60
2017-08-06T10:27:12.898Z,26.50
2017-08-06T10:29:39.819Z,25.30
2017-08-06T10:32:06.702Z,25.70
2017-08-06T10:34:34.390Z,24.80
2017-08-06T10:37:01.321Z,24.80
2017-08-06T10:39:28.932Z,25.80
2017-08-06T10:41:55.816Z,25.80
2017-08-06T10:44:22.744Z,25.60
2017-08-06T10:46:49.596Z,28.40
2017-08-06T10:49:16.552Z,29.50
2017-08-06T10:51:43.441Z,29.50
2017-08-06T10:54:10.393Z,29.40
2017-08-06T10:56:37.323Z,29.10
2017-08-06T10:59:04.211Z,29.60
2017-08-06T11:01:31.156Z,28.60
2017-08-06T11:03:58.033Z,29.70
2017-08-06T11:06:25.010Z,30.50
2017-08-06T11:08:51.894Z,29.00
2017-08-06T11:11:18.840Z,29.40
2017-08-06T11:13:45.705Z,29.80
2017-08-06T11:16:12.568Z,29.20
2017-08-06T11:18:40.241Z,28.50
2017-08-06T11:21:07.916Z,27.00
2017-08-06T11:23:34.777Z,27.00
2017-08-06T11:26:01.774Z,28.40
2017-08-06T11:28:28.660Z,27.30
2017-08-06T11:30:55.518Z,26.90
2017-08-06T11:33:22.495Z,27.60
2017-08-06T11:35:49.340Z,28.10
2017-08-06T11:38:16.204Z,28.10
2017-08-06T11:40:43.141Z,28.70
2017-08-06T11:43:10.089Z,29.00
2017-08-06T11:45:36.979Z,30.60
2017-08-06T11:48:03.923Z,31.50
2017-08-06T11:50:30.786Z,31.00
2017-08-06T11:52:57.632Z,30.50
2017-08-06T11:55:24.617Z,30.70
2017-08-06T11:57:51.571Z,29.30
2017-08-06T12:00:18.511Z,29.30
2017-08-06T12:02:45.371Z,27.10
2017-08-06T12:05:13.044Z,25.90
2017-08-06T12:07:40.673Z,26.20
2017-08-06T12:10:07.552Z,26.30
2017-08-06T12:12:35.220Z,26.40
2017-08-06T12:15:02.112Z,26.30
2017-08-06T12:17:28.992Z,27.10
2017-08-06T12:19:56.756Z,27.00
2017-08-06T12:22:24.382Z,27.30
2017-08-06T12:24:51.264Z,27.30
2017-08-06T12:27:19.056Z,26.30
2017-08-06T12:29:46.057Z,26.20
2017-08-06T12:32:12.998Z,26.00
2017-08-06T12:34:39.988Z,25.60
2017-08-06T12:37:07.009Z,25.60
2017-08-06T12:39:33.928Z,24.30
2017-08-06T12:42:00.865Z,23.70
2017-08-06T12:44:27.898Z,25.20
2017-08-06T12:46:54.788Z,24.60
2017-08-06T12:49:21.789Z,26.20
2017-08-06T12:51:48.733Z,25.10
2017-08-06T12:54:15.679Z,24.20
2017-08-06T12:56:42.680Z,23.70
2017-08-06T12:59:09.604Z,26.90
2017-08-06T13:01:36.661Z,26.40
2017-08-06T13:04:03.629Z,25.50
2017-08-06T13:06:30.563Z,26.30
2017-08-06T13:08:57.439Z,26.30
2017-08-06T13:11:24.391Z,26.00
2017-08-06T13:13:51.246Z,25.70
2017-08-06T13:16:18.104Z,25.70
2017-08-06T13:18:45.048Z,26.10
2017-08-06T13:21:11.916Z,27.10
2017-08-06T13:23:38.912Z,27.30
2017-08-06T13:26:06.498Z,27.20
2017-08-06T13:28:33.514Z,27.20
2017-08-06T13:31:00.383Z,28.30
2017-08-06T13:33:27.229Z,28.20
2017-08-06T13:35:54.183Z,28.60
2017-08-06T13:38:21.119Z,28.40
2017-08-06T13:40:48.055Z,27.90
2017-08-06T13:43:14.976Z,26.90
2017-08-06T13:45:42.577Z,26.60
2017-08-06T13:48:09.550Z,26.60
2017-08-06T13:50:36.435Z,25.60
2017-08-06T13:53:04.047Z,26.00
2017-08-06T13:55:31.020Z,25.90
2017-08-06T13:57:57.901Z,24.60
2017-08-06T14:00:24.847Z,27.70
2017-08-06T14:02:51.784Z,25.60
2017-08-06T14:05:19.482Z,26.40
2017-08-06T14:07:46.369Z,26.30
2017-08-06T14:10:13.242Z,26.60
2017-08-06T14:12:40.936Z,26.80
2017-08-06T14:15:07.902Z,26.80
2017-08-06T14:17:34.778Z,25.80
2017-08-06T14:20:01.652Z,25.80
2017-08-06T14:22:28.648Z,26.10
2017-08-06T14:24:55.505Z,27.50
2017-08-06T14:27:22.463Z,27.70
2017-08-06T14:29:50.055Z,27.10
2017-08-06T14:32:16.927Z,27.00
2017-08-06T14:34:43.864Z,28.50
2017-08-06T14:37:10.724Z,28.10
2017-08-06T14:39:37.568Z,27.30
2017-08-06T14:42:04.545Z,27.60
2017-08-06T14:44:31.504Z,27.80
2017-08-06T14:46:59.131Z,27.60
2017-08-06T14:49:25.992Z,27.60
2017-08-06T14:51:52.929Z,28.50
2017-08-06T14:54:19.808Z,25.50
2017-08-06T14:56:47.499Z,27.60
2017-08-06T14:59:14.427Z,27.60
2017-08-06T15:01:41.314Z,26.80
2017-08-06T15:04:08.237Z,27.40
2017-08-06T15:06:35.142Z,27.10
2017-08-06T15:09:02.969Z,25.30
2017-08-06T15:11:29.919Z,25.30
2017-08-06T15:13:56.859Z,25.40
2017-08-06T15:16:23.798Z,26.10
2017-08-06T15:18:50.800Z,27.00
2017-08-06T15:21:17.780Z,25.90
2017-08-06T15:23:44.642Z,25.60
2017-08-06T15:26:11.592Z,25.50
2017-08-06T15:28:38.471Z,27.10
2017-08-06T15:31:05.347Z,27.50
2017-08-06T15:33:32.306Z,24.60
2017-08-06T15:35:59.189Z,26.00
2017-08-06T15:38:26.057Z,25.60
2017-08-06T15:40:53.800Z,26.70
2017-08-06T15:43:20.656Z,26.10
2017-08-06T15:45:47.619Z,26.30
2017-08-06T15:48:15.248Z,25.20
2017-08-06T15:50:42.184Z,25.20
2017-08-06T15:53:09.055Z,25.70
2017-08-06T15:55:36.974Z,25.20
2017-08-06T15:58:03.840Z,26.90
2017-08-06T16:00:30.741Z,27.80
2017-08-06T16:02:57.668Z,27.10
2017-08-06T16:05:24.573Z,25.60
2017-08-06T16:07:52.485Z,27.30
2017-08-06T16:10:19.384Z,26.70
2017-08-06T16:12:46.248Z,27.70
2017-08-06T16:15:13.196Z,26.20
2017-08-06T16:17:40.049Z,27.40
2017-08-06T16:20:06.924Z,26.30
2017-08-06T16:22:33.856Z,26.50
2017-08-06T16:25:00.799Z,26.40
2017-08-06T16:27:27.722Z,27.00
2017-08-06T16:29:54.604Z,25.60
2017-08-06T16:32:21.573Z,26.40
2017-08-06T16:34:48.443Z,26.10
2017-08-06T16:37:15.355Z,25.90
2017-08-06T16:39:42.298Z,26.70
2017-08-06T16:42:09.188Z,27.20
2017-08-06T16:44:36.065Z,26.40
2017-08-06T16:47:03.751Z,26.70
2017-08-06T16:49:30.656Z,26.80
2017-08-06T16:51:57.548Z,27.30
2017-08-06T16:54:24.504Z,27.50
2017-08-06T16:56:51.467Z,26.50
2017-08-06T16:59:18.334Z,27.60
2017-08-06T17:01:45.228Z,27.30
2017-08-06T17:04:12.167Z,26.10
2017-08-06T17:06:39.036Z,26.70
2017-08-06T17:09:05.972Z,27.30
2017-08-06T17:11:33.007Z,25.60
2017-08-06T17:13:59.883Z,26.50
2017-08-06T17:16:26.799Z,28.30
2017-08-06T17:18:53.791Z,27.20
2017-08-06T17:21:20.662Z,27.40
2017-08-06T17:23:48.291Z,27.90
2017-08-06T17:26:15.284Z,27.90
2017-08-06T17:28:42.956Z,27.60
2017-08-06T17:31:10.548Z,27.70
2017-08-06T17:33:37.524Z,27.70
2017-08-06T17:36:04.384Z,27.70
2017-08-06T17:38:31.246Z,28.60
2017-08-06T17:40:58.975Z,30.00
2017-08-06T17:43:25.920Z,30.00
2017-08-06T17:45:52.783Z,30.40
2017-08-06T17:48:19.651Z,30.60
2017-08-06T17:50:47.305Z,30.60
2017-08-06T17:53:14.981Z,30.90
2017-08-06T17:55:41.878Z,30.80
2017-08-06T17:58:08.815Z,31.20
2017-08-06T18:00:35.889Z,31.00
2017-08-06T18:03:02.768Z,31.60
2017-08-06T18:05:29.755Z,31.20
2017-08-06T18:07:56.627Z,30.80
2017-08-06T18:10:23.536Z,31.10
2017-08-06T18:12:50.486Z,31.40
2017-08-06T18:15:17.353Z,31.20
2017-08-06T18:17:44.283Z,31.10
2017-08-06T18:20:11.217Z,31.50
2017-08-06T18:22:38.083Z,31.40
2017-08-06T18:25:04.988Z,32.30
2017-08-06T18:27:31.924Z,31.90
2017-08-06T18:29:58.771Z,31.90
2017-08-06T18:32:25.771Z,31.90
2017-08-06T18:34:52.720Z,33.00
2017-08-06T18:37:19.560Z,33.20
2017-08-06T18:39:46.455Z,34.80
2017-08-06T18:42:13.351Z,34.80
2017-08-06T18:44:40.288Z,34.40
2017-08-06T18:47:07.163Z,37.30
2017-08-06T18:49:34.776Z,37.30
2017-08-06T18:52:01.848Z,37.80
2017-08-06T18:54:28.719Z,37.40
2017-08-06T18:56:55.669Z,42.10
2017-08-06T18:59:23.334Z,43.50
2017-08-06T19:01:50.958Z,44.20
2017-08-06T19:04:17.827Z,44.20
2017-08-06T19:06:44.772Z,44.10
2017-08-06T19:09:11.634Z,44.70
2017-08-06T19:11:39.316Z,45.50
2017-08-06T19:14:06.183Z,45.40
2017-08-06T19:16:33.129Z,46.20
2017-08-06T19:18:59.979Z,46.40
2017-08-06T19:21:26.921Z,47.30
2017-08-06T19:23:53.839Z,47.20
2017-08-06T19:26:20.788Z,46.50
2017-08-06T19:28:47.640Z,46.10
2017-08-06T19:31:14.500Z,46.90
2017-08-06T19:33:41.432Z,46.80
2017-08-06T19:36:08.308Z,47.10
2017-08-06T19:38:35.239Z,47.40
2017-08-06T19:41:02.097Z,47.00
2017-08-06T19:43:29.024Z,44.70
2017-08-06T19:45:55.921Z,44.10
2017-08-06T19:48:23.585Z,44.90
2017-08-06T19:50:50.526Z,44.20
2017-08-06T19:53:18.267Z,44.50
2017-08-06T19:55:45.108Z,44.40
2017-08-06T19:58:12.134Z,44.20
2017-08-06T20:00:39.012Z,44.50
2017-08-06T20:03:05.871Z,43.90
2017-08-06T20:05:33.531Z,48.20
2017-08-06T20:08:00.445Z,48.20
2017-08-06T20:10:27.321Z,49.80
2017-08-06T20:12:54.250Z,49.80
2017-08-06T20:15:21.114Z,50.40
2017-08-06T20:17:47.983Z,51.10
2017-08-06T20:20:15.485Z,52.10
2017-08-06T20:22:42.348Z,52.80
2017-08-06T20:25:10.037Z,52.90
2017-08-06T20:27:37.636Z,52.40
2017-08-06T20:30:05.931Z,52.40
2017-08-06T20:32:32.843Z,52.60
2017-08-06T20:34:59.715Z,52.50
2017-08-06T20:37:26.571Z,52.70
2017-08-06T20:39:53.520Z,52.60
2017-08-06T20:42:21.247Z,52.80
2017-08-06T20:44:48.123Z,53.80
2017-08-06T20:47:15.057Z,54.20
2017-08-06T20:49:41.923Z,54.40
2017-08-06T20:52:08.787Z,54.60
2017-08-06T20:54:35.702Z,55.00
2017-08-06T20:57:02.623Z,54.70
2017-08-06T20:59:29.571Z,54.90
2017-08-06T21:01:56.435Z,54.80
2017-08-06T21:04:23.304Z,54.40
2017-08-06T21:06:50.228Z,53.90
2017-08-06T21:09:17.145Z,53.80
2017-08-06T21:11:44.069Z,53.20
2017-08-06T21:14:10.933Z,53.30
2017-08-06T21:16:37.860Z,53.60
2017-08-06T21:19:05.463Z,53.60
2017-08-06T21:21:32.421Z,53.50
2017-08-06T21:23:59.360Z,53.80
2017-08-06T21:26:26.227Z,53.80
2017-08-06T21:28:53.129Z,54.30
2017-08-06T21:31:20.063Z,54.60
2017-08-06T21:33:46.933Z,54.90
2017-08-06T21:36:13.895Z,55.40
2017-08-06T21:38:40.826Z,55.50
2017-08-06T21:41:07.681Z,55.70
2017-08-06T21:43:34.612Z,55.80
2017-08-06T21:46:01.471Z,55.90
2017-08-06T21:48:28.330Z,56.20
2017-08-06T21:50:55.272Z,56.20
2017-08-06T21:53:22.120Z,56.40
2017-08-06T21:55:49.027Z,56.30
2017-08-06T21:58:16.004Z,56.00
2017-08-06T22:00:42.852Z,55.50
2017-08-06T22:03:09.797Z,55.80
2017-08-06T22:05:36.706Z,54.70
2017-08-06T22:08:03.574Z,53.30
2017-08-06T22:10:30.503Z,53.50
2017-08-06T22:12:57.521Z,54.20
2017-08-06T22:15:25.131Z,55.40
2017-08-06T22:17:51.995Z,55.30
2017-08-06T22:20:18.923Z,54.40
2017-08-06T22:22:45.850Z,53.80
2017-08-06T22:25:12.717Z,52.80
2017-08-06T22:27:39.643Z,52.70
2017-08-06T22:30:06.525Z,52.40
2017-08-06T22:32:33.463Z,52.30
2017-08-06T22:35:00.399Z,53.00
2017-08-06T22:37:27.334Z,52.90
2017-08-06T22:39:54.186Z,53.30
2017-08-06T22:42:21.434Z,53.50
2017-08-06T22:44:48.311Z,53.70
2017-08-06T22:47:15.152Z,53.60
2017-08-06T22:49:42.084Z,53.90
2017-08-06T22:52:08.944Z,53.60
2017-08-06T22:54:35.874Z,53.50
2017-08-06T22:57:02.723Z,53.70
2017-08-06T22:59:29.616Z,54.20
2017-08-06T23:01:56.541Z,54.70
2017-08-06T23:04:23.406Z,54.90
2017-08-06T23:06:50.353Z,54.80
2017-08-06T23:09:17.194Z,54.90
2017-08-06T23:11:44.060Z,55.20
2017-08-06T23:14:10.967Z,55.20
2017-08-06T23:16:37.898Z,55.10
2017-08-06T23:19:04.774Z,55.40
2017-08-06T23:21:31.688Z,55.80
2017-08-06T23:23:58.695Z,56.10
2017-08-06T23:26:25.620Z,56.70
2017-08-06T23:28:52.463Z,57.10
2017-08-06T23:31:19.381Z,57.10
2017-08-06T23:33:46.991Z,56.90
2017-08-06T23:36:13.923Z,56.90
2017-08-06T23:38:40.782Z,57.10
2017-08-06T23:41:07.699Z,57.00
2017-08-06T23:43:34.552Z,57.60
2017-08-06T23:46:01.421Z,57.40
2017-08-06T23:48:28.344Z,57.70
2017-08-06T23:50:55.282Z,57.90
2017-08-06T23:53:22.217Z,58.10
2017-08-06T23:55:49.137Z,58.10
2017-08-06T23:58:16.003Z,57.50
